Time;durP1;ratioP1;P1;durP2;ratioP2;P2;SDS_P1;SDS_P2;PMS_P1;PMS_P2;Temp;Humidity;BMP_temperature;BMP_pressure;BME280_temperature;BME280_humidity;BME280_pressure;Samples;Min_cycle;Max_cycle;Signal;HPM_P1;HPM_P2
2021/12/18 00:00:02;;;;;;;11.27;5.90;;;;;;;0.90;77.54;99755.72;4999292;28;20152;-86
2021/12/18 00:02:29;;;;;;;10.70;5.80;;;;;;;0.79;77.42;99742.41;5000213;28;20085;-85
2021/12/18 00:04:56;;;;;;;11.65;5.85;;;;;;;0.85;77.41;99755.53;5002006;28;20380;-86
2021/12/18 00:07:23;;;;;;;10.25;5.43;;;;;;;0.91;77.62;99765.19;4997663;28;20050;-87
2021/12/18 00:09:52;;;;;;;10.32;5.45;;;;;;;0.82;77.19;99747.69;4998394;28;20062;-86
2021/12/18 00:12:20;;;;;;;9.45;5.10;;;;;;;0.79;77.52;99751.00;4998187;28;20486;-87
2021/12/18 00:14:49;;;;;;;8.25;4.75;;;;;;;0.87;77.08;99771.91;4996706;28;20054;-87
2021/12/18 00:17:17;;;;;;;10.32;5.07;;;;;;;0.86;77.10;99754.72;4997875;28;20117;-86
2021/12/18 00:19:44;;;;;;;10.60;5.30;;;;;;;0.85;77.48;99764.94;5012446;28;20054;-87
2021/12/18 00:22:11;;;;;;;10.93;5.35;;;;;;;0.80;77.40;99757.03;4998200;28;20077;-87
2021/12/18 00:24:38;;;;;;;11.05;5.20;;;;;;;0.76;77.48;99762.88;5000198;28;20124;-86
2021/12/18 00:27:05;;;;;;;8.27;4.68;;;;;;;0.74;77.57;99770.53;5000460;28;20062;-86
2021/12/18 00:29:32;;;;;;;8.10;5.00;;;;;;;0.50;77.19;99728.38;5019773;28;20061;-85
2021/12/18 00:31:59;;;;;;;10.00;5.00;;;;;;;0.71;78.19;99767.84;4999324;28;20418;-84
2021/12/18 00:34:26;;;;;;;8.25;4.50;;;;;;;0.68;77.36;99762.56;4998224;28;20054;-86
2021/12/18 00:36:53;;;;;;;7.07;4.60;;;;;;;0.65;77.48;99769.28;4997329;28;20046;-86
2021/12/18 00:39:20;;;;;;;7.30;4.10;;;;;;;0.62;77.81;99764.88;4996952;28;20057;-85
2021/12/18 00:41:59;;;;;;;6.93;4.20;;;;;;;0.63;77.39;99778.63;4996645;28;20054;-86
2021/12/18 00:44:26;;;;;;;6.57;4.30;;;;;;;0.57;77.71;99762.09;5006634;28;20058;-85
2021/12/18 00:46:53;;;;;;;7.95;4.45;;;;;;;0.49;77.73;99755.75;5009381;28;20058;-86
2021/12/18 00:49:22;;;;;;;9.52;4.68;;;;;;;0.55;78.04;99766.31;5021214;28;20169;-85
2021/12/18 00:51:49;;;;;;;8.68;4.03;;;;;;;0.56;77.87;99769.75;5029416;28;20050;-86
2021/12/18 00:54:17;;;;;;;7.05;4.35;;;;;;;0.58;77.83;99770.69;5020516;28;20056;-88
2021/12/18 00:56:44;;;;;;;8.63;4.65;;;;;;;0.51;78.09;99758.41;5016840;28;20061;-86
2021/12/18 00:59:11;;;;;;;9.55;5.38;;;;;;;0.57;77.95;99772.38;5012781;28;20421;-85
2021/12/18 01:01:38;;;;;;;9.63;5.18;;;;;;;0.62;77.94;99777.72;4980617;28;20414;-86
2021/12/18 01:04:04;;;;;;;8.80;4.60;;;;;;;0.67;77.81;99772.75;5001137;28;20054;-86
2021/12/18 01:06:32;;;;;;;7.05;4.38;;;;;;;0.66;77.95;99779.59;4991253;28;20136;-86
2021/12/18 01:08:59;;;;;;;8.10;4.57;;;;;;;0.72;77.88;99786.72;5016377;28;20148;-85
2021/12/18 01:11:33;;;;;;;8.77;4.63;;;;;;;0.63;78.12;99765.75;5015922;28;20089;-86
2021/12/18 01:25:09;;;;;;;8.73;4.57;;;;;;;0.74;77.82;99795.38;4978154;28;20066;-85
2021/12/18 01:27:36;;;;;;;8.05;4.65;;;;;;;0.70;78.00;99788.34;4995390;28;20054;-85
2021/12/18 01:30:07;;;;;;;8.25;4.85;;;;;;;0.71;77.80;99785.84;4979229;28;20075;-87
2021/12/18 01:32:34;;;;;;;9.25;5.50;;;;;;;0.74;77.95;99785.06;4996642;28;20069;-86
2021/12/18 01:35:02;;;;;;;8.27;4.97;;;;;;;0.76;77.86;99770.59;4997656;28;20097;-85
2021/12/18 01:37:29;;;;;;;8.05;4.82;;;;;;;0.79;77.63;99771.56;4997694;28;20097;-86
2021/12/18 01:39:57;;;;;;;8.93;5.22;;;;;;;0.87;77.45;99782.19;4997809;28;20066;-86
2021/12/18 01:45:09;;;;;;;10.07;5.07;;;;;;;0.80;77.49;99777.63;4983588;28;20085;-86
2021/12/18 01:53:11;;;;;;;8.93;5.13;;;;;;;0.78;77.64;99771.53;4979463;28;20039;-86
2021/12/18 01:55:40;;;;;;;10.57;5.30;;;;;;;0.83;77.75;99777.72;5000279;28;20057;-85
2021/12/18 01:58:07;;;;;;;7.78;4.60;;;;;;;0.84;77.39;99771.78;4997396;28;20061;-85
2021/12/18 02:00:45;;;;;;;8.60;4.57;;;;;;;0.82;77.45;99766.56;4960855;28;20086;-86
2021/12/18 02:03:12;;;;;;;9.18;4.63;;;;;;;0.90;77.74;99781.44;4994316;28;20081;-87
2021/12/18 02:05:40;;;;;;;10.52;5.40;;;;;;;0.87;77.42;99779.63;4975702;28;20058;-86
2021/12/18 02:08:07;;;;;;;9.20;5.10;;;;;;;0.82;77.24;99778.56;4996236;28;20078;-85
2021/12/18 02:10:46;;;;;;;10.18;5.30;;;;;;;0.85;77.44;99777.81;4977224;28;20059;-85
2021/12/18 02:21:24;;;;;;;7.90;4.68;;;;;;;0.90;76.97;99787.44;4976527;28;20079;-84
2021/12/18 02:23:51;;;;;;;;;;;;;;;0.70;77.23;99788.34;4977584;28;20405;-85
2021/12/18 02:26:20;;;;;;;9.25;4.53;;;;;;;0.66;77.51;99777.03;4976250;28;19926;-84
2021/12/18 02:28:49;;;;;;;9.40;4.65;;;;;;;0.73;77.33;99783.31;4985246;28;20038;-83
2021/12/18 02:31:19;;;;;;;11.20;5.60;;;;;;;0.73;77.65;99791.91;4982218;28;20054;-84
2021/12/18 02:33:49;;;;;;;9.20;5.10;;;;;;;0.72;77.41;99795.28;4973408;28;20051;-84
2021/12/18 02:36:23;;;;;;;11.32;5.38;;;;;;;0.71;77.57;99787.50;4946518;28;20122;-87
2021/12/18 02:44:08;;;;;;;9.50;5.30;;;;;;;0.64;77.49;99770.06;4977099;28;20079;-83
2021/12/18 02:46:36;;;;;;;8.85;4.72;;;;;;;0.76;77.95;99801.44;5009298;28;20046;-84
2021/12/18 02:49:10;;;;;;;9.27;4.78;;;;;;;0.68;77.57;99789.97;4984525;28;20058;-86
2021/12/18 02:51:38;;;;;;;8.23;4.63;;;;;;;0.72;77.45;99803.00;4981862;28;20057;-84
2021/12/18 02:54:05;;;;;;;9.23;4.88;;;;;;;0.72;77.54;99812.41;4981189;28;20074;-85
2021/12/18 02:56:33;;;;;;;12.43;6.03;;;;;;;0.66;77.77;99819.88;5010185;28;20063;-86
2021/12/18 02:59:07;;;;;;;11.18;5.60;;;;;;;0.49;78.05;99791.75;4976842;28;20145;-85
2021/12/18 03:01:37;;;;;;;9.60;5.05;;;;;;;0.52;78.27;99814.16;4975807;28;20495;-85
2021/12/18 03:04:18;;;;;;;9.52;5.32;;;;;;;0.45;78.31;99800.13;4976972;28;20113;-85
2021/12/18 03:06:50;;;;;;;8.35;5.22;;;;;;;0.51;78.43;99822.66;4959720;28;20063;-85
2021/12/18 03:25:26;;;;;;;9.85;5.20;;;;;;;0.31;78.45;99788.41;4998319;28;20054;-85
2021/12/18 03:27:54;;;;;;;9.88;5.13;;;;;;;0.40;78.31;99789.66;4996898;28;20062;-86
2021/12/18 03:30:21;;;;;;;9.80;5.25;;;;;;;0.50;78.68;99803.81;4992065;28;20149;-85
2021/12/18 03:32:48;;;;;;;9.15;4.95;;;;;;;0.51;78.24;99795.25;4983492;28;20063;-86
2021/12/18 03:35:17;;;;;;;9.57;5.13;;;;;;;0.50;78.22;99777.22;4985042;28;20062;-86
2021/12/18 03:37:44;;;;;;;9.23;4.90;;;;;;;0.54;78.15;99790.28;4992509;28;20082;-87
2021/12/18 03:40:14;;;;;;;8.68;5.03;;;;;;;0.58;77.99;99799.88;4986534;28;20058;-88
2021/12/18 03:42:42;;;;;;;9.13;4.75;;;;;;;0.46;78.01;99783.06;4980616;28;20078;-88
2021/12/18 03:45:10;;;;;;;10.50;5.07;;;;;;;0.56;78.10;99801.50;4979015;28;20086;-87
2021/12/18 03:47:38;;;;;;;10.55;5.30;;;;;;;0.55;77.72;99802.28;4982602;28;20057;-89
2021/12/18 03:50:06;;;;;;;8.98;4.88;;;;;;;0.55;77.45;99791.13;5017770;28;20502;-88
2021/12/18 03:52:33;;;;;;;10.88;5.60;;;;;;;0.59;77.84;99808.44;4985524;28;20497;-89
2021/12/18 03:55:00;;;;;;;12.60;5.57;;;;;;;0.28;77.83;99776.31;5009568;28;20065;-89
2021/12/18 03:57:28;;;;;;;10.15;4.88;;;;;;;0.49;78.04;99807.16;5035001;28;20580;-89
2021/12/18 03:59:55;;;;;;;11.20;5.43;;;;;;;0.46;78.11;99819.03;5019842;28;20054;-88
2021/12/18 04:02:23;;;;;;;10.45;4.70;;;;;;;0.48;77.91;99820.84;5034421;28;20508;-88
2021/12/18 04:04:50;;;;;;;9.23;4.60;;;;;;;0.50;77.66;99821.78;5017395;28;20049;-87
2021/12/18 04:07:17;;;;;;;8.57;4.57;;;;;;;0.52;77.26;99821.88;5016618;28;20430;-87
2021/12/18 04:09:46;;;;;;;9.23;4.65;;;;;;;0.38;77.06;99786.16;5017557;28;20054;-87
2021/12/18 04:12:15;;;;;;;10.45;5.15;;;;;;;0.44;77.29;99811.25;5001101;28;20104;-88
2021/12/18 04:14:41;;;;;;;10.60;5.30;;;;;;;0.42;77.41;99810.28;5016660;28;20058;-84
2021/12/18 04:17:08;;;;;;;8.27;4.75;;;;;;;0.45;77.34;99818.13;5016014;28;20054;-87
2021/12/18 04:19:36;;;;;;;8.27;4.00;;;;;;;0.43;77.08;99827.50;5016445;28;20057;-86
2021/12/18 04:22:03;;;;;;;9.95;5.05;;;;;;;0.41;76.95;99823.97;5016043;28;20403;-86
2021/12/18 04:24:30;;;;;;;9.77;4.95;;;;;;;0.29;77.42;99823.44;5016277;28;20085;-86
2021/12/18 04:26:57;;;;;;;8.73;4.70;;;;;;;0.31;77.35;99830.38;5018218;28;20053;-84
2021/12/18 04:29:24;;;;;;;9.10;4.70;;;;;;;0.35;77.34;99827.16;5025475;28;20145;-84
2021/12/18 04:31:51;;;;;;;10.75;5.18;;;;;;;0.26;77.18;99820.72;5029529;28;20057;-86
2021/12/18 04:34:18;;;;;;;10.77;4.93;;;;;;;0.32;76.96;99834.75;4999440;28;20053;-85
2021/12/18 04:36:45;;;;;;;10.07;4.45;;;;;;;0.03;77.44;99797.47;5015998;28;20058;-85
2021/12/18 04:39:12;;;;;;;9.27;4.22;;;;;;;0.18;77.78;99830.66;5016571;28;20049;-85
2021/12/18 04:41:47;;;;;;;9.13;4.18;;;;;;;0.13;77.46;99825.34;5033013;28;20053;-87
2021/12/18 04:44:14;;;;;;;10.65;4.90;;;;;;;0.13;77.68;99840.75;5025211;28;20084;-87
2021/12/18 04:46:41;;;;;;;10.30;4.72;;;;;;;0.09;77.71;99831.13;5021646;28;20141;-88
2021/12/18 04:49:09;;;;;;;10.75;5.05;;;;;;;0.09;77.68;99832.84;5016534;28;20066;-85
2021/12/18 04:51:36;;;;;;;10.27;4.57;;;;;;;0.08;77.97;99825.94;5009788;28;20077;-87
2021/12/18 04:54:04;;;;;;;12.57;4.95;;;;;;;0.11;78.13;99836.34;4997636;28;20055;-85
2021/12/18 04:56:32;;;;;;;11.95;5.22;;;;;;;0.17;78.18;99832.38;4998760;28;20494;-85
2021/12/18 04:58:59;;;;;;;10.50;4.55;;;;;;;0.14;77.61;99821.94;4998025;28;20465;-85
2021/12/18 05:01:26;;;;;;;14.02;5.18;;;;;;;0.20;77.68;99826.47;5014961;28;20149;-85
2021/12/18 05:03:54;;;;;;;11.20;4.90;;;;;;;0.25;77.67;99839.53;4997686;28;20050;-86
2021/12/18 05:06:22;;;;;;;12.45;4.65;;;;;;;0.16;77.83;99804.03;4978494;28;20061;-85
2021/12/18 05:08:49;;;;;;;11.00;5.32;;;;;;;0.20;77.60;99819.66;4973862;28;20058;-86
2021/12/18 05:11:18;;;;;;;10.32;4.95;;;;;;;0.31;77.80;99839.81;4995647;28;20057;-87
2021/12/18 05:13:45;;;;;;;10.80;4.53;;;;;;;0.30;77.39;99838.03;4979469;28;20458;-84
2021/12/18 05:16:12;;;;;;;8.70;4.38;;;;;;;0.31;77.55;99839.81;4995222;28;20108;-85
2021/12/18 05:18:39;;;;;;;8.93;5.15;;;;;;;0.27;77.64;99820.78;4995197;28;20108;-84
2021/12/18 05:21:05;;;;;;;8.70;4.15;;;;;;;0.34;77.16;99827.94;4977540;28;20046;-83
2021/12/18 05:23:33;;;;;;;7.85;3.97;;;;;;;0.34;77.13;99837.34;4993623;28;20046;-83
2021/12/18 05:25:59;;;;;;;10.02;4.50;;;;;;;0.29;77.19;99824.31;4995217;28;20109;-85
2021/12/18 05:28:26;;;;;;;7.13;3.60;;;;;;;0.37;76.99;99840.06;4987375;28;20426;-88
2021/12/18 05:30:53;;;;;;;10.95;3.78;;;;;;;0.39;76.67;99843.59;4995070;28;20058;-86
2021/12/18 05:33:21;;;;;;;6.82;3.45;;;;;;;0.25;76.34;99832.69;4976950;28;20704;-84
2021/12/18 05:35:48;;;;;;;7.78;3.45;;;;;;;0.28;76.82;99845.69;4997735;28;20054;-83
2021/12/18 05:38:15;;;;;;;6.10;3.00;;;;;;;0.16;76.53;99843.44;4999529;28;20058;-84
2021/12/18 05:40:42;;;;;;;5.38;3.17;;;;;;;0.17;76.65;99839.16;4945574;28;20054;-85
2021/12/18 05:43:09;;;;;;;6.07;2.90;;;;;;;0.17;76.83;99847.78;4994896;28;20109;-84
2021/12/18 05:45:37;;;;;;;5.72;3.08;;;;;;;0.12;76.45;99836.41;4994486;28;20577;-85
2021/12/18 05:48:05;;;;;;;5.53;2.80;;;;;;;0.14;76.63;99846.75;4977142;28;20054;-84
2021/12/18 05:50:33;;;;;;;5.63;2.78;;;;;;;0.10;76.90;99840.59;5013709;28;20068;-82
2021/12/18 05:53:01;;;;;;;5.30;2.53;;;;;;;0.13;76.79;99848.44;5015687;28;20525;-86
2021/12/18 05:55:30;;;;;;;5.35;2.63;;;;;;;0.04;76.57;99835.16;4998675;28;20499;-85
2021/12/18 05:57:57;;;;;;;5.03;2.90;;;;;;;0.12;76.51;99836.41;5014366;28;20044;-84
2021/12/18 06:00:24;;;;;;;6.05;2.92;;;;;;;0.06;76.25;99823.28;5012450;28;20088;-82
2021/12/18 06:02:52;;;;;;;8.13;3.38;;;;;;;0.11;76.37;99837.22;5013508;28;20072;-81
2021/12/18 06:05:19;;;;;;;6.18;3.05;;;;;;;0.11;76.33;99837.22;4998530;28;20113;-84
2021/12/18 06:07:55;;;;;;;5.60;2.90;;;;;;;0.09;76.61;99837.97;4994138;28;20046;-83
2021/12/18 06:10:29;;;;;;;6.10;3.10;;;;;;;0.21;76.46;99846.22;4995694;28;20552;-84
2021/12/18 06:12:59;;;;;;;8.18;3.95;;;;;;;0.03;75.87;99814.59;4992897;28;20084;-84
2021/12/18 06:15:26;;;;;;;6.60;3.90;;;;;;;0.11;76.35;99839.78;4979501;28;20062;-86
2021/12/18 06:17:55;;;;;;;5.90;3.13;;;;;;;0.10;76.22;99840.59;4996022;28;20050;-84
2021/12/18 06:20:23;;;;;;;5.78;3.42;;;;;;;0.00;76.27;99828.16;4994326;28;20042;-84
2021/12/18 06:22:50;;;;;;;7.90;3.20;;;;;;;0.17;76.18;99831.47;4994017;28;20053;-84
2021/12/18 06:25:17;;;;;;;7.18;3.53;;;;;;;0.24;75.86;99843.78;4995021;28;20074;-84
2021/12/18 06:27:45;;;;;;;6.93;2.97;;;;;;;0.19;75.75;99842.69;4995698;28;20050;-84
2021/12/18 06:30:12;;;;;;;8.35;3.67;;;;;;;0.15;75.70;99838.22;4996499;28;20089;-84
2021/12/18 06:33:00;;;;;;;7.90;3.40;;;;;;;0.05;75.63;99839.53;5002484;28;20065;-82
2021/12/18 06:35:27;;;;;;;6.72;3.20;;;;;;;0.09;75.84;99845.69;4977383;28;20046;-81
2021/12/18 06:37:54;;;;;;;7.05;3.33;;;;;;;0.03;75.47;99840.25;4993320;28;20050;-82
2021/12/18 06:40:21;;;;;;;6.93;3.60;;;;;;;0.05;75.82;99847.22;4994855;28;20054;-82
2021/12/18 06:42:48;;;;;;;8.95;4.07;;;;;;;0.11;75.24;99849.19;4994883;28;20081;-83
2021/12/18 06:45:15;;;;;;;8.18;3.38;;;;;;;0.05;75.22;99830.94;5009644;28;20110;-83
2021/12/18 06:47:42;;;;;;;8.85;4.03;;;;;;;0.15;75.18;99849.41;5009972;28;20054;-80
2021/12/18 06:50:10;;;;;;;8.65;4.50;;;;;;;0.17;75.00;99846.88;4999033;28;20057;-82
2021/12/18 06:52:37;;;;;;;12.73;4.63;;;;;;;0.23;75.05;99849.72;4998202;28;20050;-82
2021/12/18 06:55:04;;;;;;;9.02;3.65;;;;;;;0.08;74.83;99831.94;4997319;28;20085;-83
2021/12/18 06:57:32;;;;;;;14.32;5.07;;;;;;;0.10;74.75;99845.72;4997323;28;20069;-83
2021/12/18 06:59:59;;;;;;;12.75;4.28;;;;;;;0.15;75.08;99849.41;4980699;28;20110;-83
2021/12/18 07:02:26;;;;;;;11.43;4.95;;;;;;;0.18;74.79;99849.53;4999067;28;20054;-84
2021/12/18 07:04:54;;;;;;;13.10;4.63;;;;;;;0.23;74.75;99852.28;4981815;28;20149;-84
2021/12/18 07:07:21;;;;;;;10.80;4.53;;;;;;;0.27;74.40;99851.63;4995391;28;20089;-84
2021/12/18 07:09:48;;;;;;;14.82;5.07;;;;;;;0.19;74.46;99845.25;4982743;28;20153;-84
2021/12/18 07:12:15;;;;;;;12.50;4.60;;;;;;;0.23;74.74;99861.69;4959460;28;20110;-84
2021/12/18 07:14:42;;;;;;;12.80;5.13;;;;;;;0.16;74.87;99835.72;4975395;28;20141;-85
2021/12/18 07:17:09;;;;;;;13.05;5.28;;;;;;;0.25;74.43;99855.81;4978626;28;20055;-84
2021/12/18 07:19:37;;;;;;;10.38;4.95;;;;;;;0.26;74.60;99854.13;5012334;28;20054;-84
2021/12/18 07:22:04;;;;;;;11.88;5.60;;;;;;;0.28;74.43;99855.97;4983186;28;20494;-84
2021/12/18 07:24:31;;;;;;;11.60;5.15;;;;;;;0.28;74.16;99861.09;4983024;28;20558;-85
2021/12/18 07:26:58;;;;;;;10.95;4.45;;;;;;;0.28;73.90;99839.66;4978671;28;20050;-83
2021/12/18 07:29:25;;;;;;;11.27;4.80;;;;;;;0.37;74.21;99835.81;4977725;28;20082;-84
2021/12/18 07:31:52;;;;;;;11.50;4.15;;;;;;;0.27;73.68;99817.34;4979243;28;20521;-83
2021/12/18 07:34:20;;;;;;;10.88;4.07;;;;;;;0.18;73.90;99821.25;4979067;28;20058;-86
2021/12/18 07:36:48;;;;;;;10.45;4.30;;;;;;;0.36;73.33;99859.72;4993282;28;20146;-83
2021/12/18 07:39:15;;;;;;;10.13;4.50;;;;;;;0.32;73.26;99854.38;4977520;28;20059;-90
2021/12/18 07:41:43;;;;;;;12.80;5.18;;;;;;;0.28;73.42;99850.81;4977496;28;20497;-85
2021/12/18 07:44:10;;;;;;;9.75;4.60;;;;;;;0.31;73.40;99858.66;4978184;28;20058;-88
2021/12/18 07:46:38;;;;;;;12.70;4.90;;;;;;;0.21;73.36;99838.50;5005902;28;20519;-85
2021/12/18 07:49:07;;;;;;;11.68;4.78;;;;;;;0.27;72.79;99837.91;4992766;28;20073;-85
2021/12/18 07:51:35;;;;;;;11.68;4.78;;;;;;;0.31;73.03;99844.94;4981147;28;20061;-85
2021/12/18 07:54:03;;;;;;;12.88;4.50;;;;;;;0.35;73.17;99846.84;4997344;28;20420;-84
2021/12/18 07:56:31;;;;;;;10.80;4.80;;;;;;;0.40;72.83;99850.47;4998376;28;20050;-84
2021/12/18 07:58:58;;;;;;;10.00;4.85;;;;;;;0.45;72.49;99854.09;4997366;28;20069;-82
2021/12/18 08:01:25;;;;;;;10.95;4.13;;;;;;;0.39;72.49;99846.16;4979397;28;20054;-83
2021/12/18 08:03:53;;;;;;;10.38;4.47;;;;;;;0.45;72.17;99858.38;5007979;28;20061;-85
2021/12/18 08:06:20;;;;;;;9.55;4.50;;;;;;;0.36;71.72;99852.00;4988973;28;20078;-85
2021/12/18 08:08:48;;;;;;;13.32;6.15;;;;;;;0.38;71.78;99863.25;4975229;28;20061;-86
2021/12/18 08:11:16;;;;;;;17.73;6.97;;;;;;;0.37;71.11;99848.66;4997164;28;20058;-86
2021/12/18 08:13:47;;;;;;;14.27;5.05;;;;;;;0.32;70.70;99854.38;4980514;28;20054;-86
2021/12/18 08:16:14;;;;;;;11.45;6.05;;;;;;;0.28;71.05;99852.50;4987666;28;20055;-86
2021/12/18 08:18:43;;;;;;;11.73;5.03;;;;;;;0.17;70.92;99847.78;4952853;28;20069;-87
2021/12/18 08:21:10;;;;;;;9.80;4.32;;;;;;;0.08;71.39;99852.47;4969190;28;20073;-87
2021/12/18 08:23:38;;;;;;;7.13;3.95;;;;;;;0.05;71.56;99851.50;4982174;28;20414;-88
2021/12/18 08:26:06;;;;;;;8.70;4.03;;;;;;;0.06;71.59;99854.09;4970911;28;20055;-85
2021/12/18 08:28:33;;;;;;;10.07;4.55;;;;;;;0.08;71.40;99838.78;5001082;28;20546;-82
2021/12/18 08:31:00;;;;;;;9.13;4.10;;;;;;;0.00;70.91;99835.88;4989190;28;20109;-84
2021/12/18 08:33:30;;;;;;;9.40;3.55;;;;;;;-0.05;70.55;99837.34;4988894;28;20045;-84
2021/12/18 08:35:57;;;;;;;8.18;3.42;;;;;;;-0.12;70.54;99825.03;4987092;28;20447;-83
2021/12/18 08:38:24;;;;;;;7.70;3.90;;;;;;;-0.10;70.75;99829.44;4985945;28;20046;-83
2021/12/18 08:40:51;;;;;;;8.45;4.43;;;;;;;-0.04;70.45;99824.56;4990894;28;20054;-85
2021/12/18 08:43:18;;;;;;;6.32;3.60;;;;;;;-0.09;70.20;99792.66;5005081;28;20050;-87
2021/12/18 08:45:49;;;;;;;8.00;3.83;;;;;;;0.06;70.10;99817.28;5000915;28;20054;-86
2021/12/18 08:48:16;;;;;;;7.03;3.47;;;;;;;0.04;70.05;99812.06;4998618;28;20076;-82
2021/12/18 08:50:43;;;;;;;7.82;3.80;;;;;;;0.02;70.21;99799.97;4988785;28;20054;-86
2021/12/18 08:53:10;;;;;;;7.15;3.92;;;;;;;0.04;69.78;99786.38;4971136;28;20186;-86
2021/12/18 08:55:39;;;;;;;10.77;3.90;;;;;;;0.15;69.81;99790.31;4989375;28;20061;-84
2021/12/18 08:58:06;;;;;;;8.00;3.65;;;;;;;0.28;69.12;99788.25;4986500;28;20046;-86
2021/12/18 09:00:34;;;;;;;9.07;3.60;;;;;;;0.29;68.81;99785.75;4983867;28;20055;-88
2021/12/18 09:03:01;;;;;;;6.50;3.22;;;;;;;0.33;68.85;99779.06;4970302;28;20430;-89
2021/12/18 09:05:29;;;;;;;7.40;3.50;;;;;;;0.51;68.38;99772.13;4981117;28;20121;-88
2021/12/18 09:07:57;;;;;;;6.03;3.40;;;;;;;0.50;67.30;99761.81;4965821;28;20085;-85
2021/12/18 09:10:25;;;;;;;7.32;3.83;;;;;;;0.47;67.06;99759.97;4983477;28;20133;-85
2021/12/18 09:12:54;;;;;;;5.70;3.13;;;;;;;0.42;67.58;99756.31;4986694;28;20058;-86
2021/12/18 09:15:22;;;;;;;5.05;2.85;;;;;;;0.24;67.52;99761.56;4986077;28;20404;-84
2021/12/18 09:17:50;;;;;;;5.20;3.40;;;;;;;0.14;67.41;99750.00;4987864;28;20058;-86
2021/12/18 09:20:17;;;;;;;5.88;3.28;;;;;;;0.29;67.51;99761.75;4979532;28;20042;-87
2021/12/18 09:22:45;;;;;;;5.05;3.10;;;;;;;0.38;66.72;99750.16;4973856;28;20046;-91
2021/12/18 09:25:13;;;;;;;6.13;3.15;;;;;;;0.51;66.49;99750.69;4976023;28;20084;-88
2021/12/18 09:27:40;;;;;;;6.22;3.17;;;;;;;0.69;66.00;99754.03;4976315;28;20385;-86
2021/12/18 09:30:11;;;;;;;7.78;4.20;;;;;;;0.91;65.44;99750.63;4976597;28;20114;-86
2021/12/18 09:32:39;;;;;;;5.53;2.85;;;;;;;0.94;64.63;99743.03;4976933;28;20059;-88
2021/12/18 09:35:08;;;;;;;7.90;2.90;;;;;;;0.94;64.28;99739.59;4976571;28;20051;-87
2021/12/18 09:37:35;;;;;;;5.93;3.20;;;;;;;0.85;64.92;99727.25;4985461;28;20074;-85
2021/12/18 09:40:07;;;;;;;10.43;3.72;;;;;;;0.95;64.75;99737.09;4979901;28;20065;-86
2021/12/18 09:42:36;;;;;;;7.80;3.72;;;;;;;0.98;64.68;99736.31;4978751;28;20055;-82
2021/12/18 09:45:05;;;;;;;8.52;4.38;;;;;;;0.99;65.20;99718.38;4978794;28;20059;-85
2021/12/18 09:47:32;;;;;;;6.38;3.22;;;;;;;1.16;64.55;99728.44;4978537;28;20051;-85
2021/12/18 09:50:05;;;;;;;7.50;3.35;;;;;;;1.16;64.41;99715.56;4957201;28;20082;-85
2021/12/18 09:52:35;;;;;;;6.22;3.08;;;;;;;1.23;64.39;99697.00;4976098;28;20054;-84
2021/12/18 09:55:05;;;;;;;4.75;3.28;;;;;;;1.20;64.07;99682.28;4985098;28;20517;-85
2021/12/18 09:57:34;;;;;;;6.60;3.50;;;;;;;1.20;64.13;99663.41;4995199;28;20058;-87
2021/12/18 10:00:02;;;;;;;4.75;3.40;;;;;;;1.52;64.42;99716.09;4997024;28;20060;-86
2021/12/18 10:02:38;;;;;;;6.95;4.20;;;;;;;1.55;64.61;99708.50;4997373;28;20058;-86
2021/12/18 10:05:17;;;;;;;6.82;3.67;;;;;;;1.57;64.14;99705.94;5001438;28;20066;-85
2021/12/18 10:08:04;;;;;;;9.27;4.07;;;;;;;1.44;64.49;99699.47;5000162;28;20136;-84
2021/12/18 10:10:32;;;;;;;7.72;4.03;;;;;;;1.32;64.59;99697.34;4998252;28;20150;-84
2021/12/18 10:13:09;;;;;;;7.15;3.65;;;;;;;1.09;64.78;99696.44;5023432;28;20081;-85
2021/12/18 10:15:37;;;;;;;9.40;4.78;;;;;;;1.03;64.58;99696.22;4976888;28;20422;-84
2021/12/18 10:18:10;;;;;;;9.70;4.45;;;;;;;0.94;65.20;99695.84;4975195;28;20470;-84
2021/12/18 10:20:38;;;;;;;17.38;8.18;;;;;;;0.85;65.20;99677.50;4975796;28;20113;-87
2021/12/18 10:23:06;;;;;;;8.38;4.88;;;;;;;0.87;65.24;99678.44;4975571;28;20062;-87
2021/12/18 10:25:36;;;;;;;8.00;4.35;;;;;;;0.75;64.99;99660.81;5007116;28;20054;-85
2021/12/18 10:28:14;;;;;;;7.60;3.80;;;;;;;0.84;65.34;99696.31;4973835;28;20495;-89
2021/12/18 10:30:50;;;;;;;7.00;3.95;;;;;;;0.76;65.27;99681.47;4974440;28;20051;-86
2021/12/18 10:33:18;;;;;;;6.07;3.53;;;;;;;0.80;65.46;99685.91;4975713;28;20046;-88
2021/12/18 10:35:51;;;;;;;5.72;3.58;;;;;;;0.53;65.42;99671.94;4978466;28;20059;-84
2021/12/18 10:38:38;;;;;;;7.28;3.60;;;;;;;0.55;66.08;99690.88;4986315;28;20055;-85
2021/12/18 10:41:26;;;;;;;7.22;3.53;;;;;;;0.48;66.00;99686.31;4975441;28;20047;-86
2021/12/18 10:44:04;;;;;;;7.32;3.65;;;;;;;0.41;66.32;99690.34;4975559;28;20066;-83
2021/12/18 10:46:39;;;;;;;6.57;3.08;;;;;;;0.19;66.64;99668.91;4957966;28;20427;-85
2021/12/18 10:49:17;;;;;;;7.68;3.60;;;;;;;0.15;66.73;99689.22;4994230;28;20054;-84
2021/12/18 10:51:56;;;;;;;13.48;5.50;;;;;;;0.02;67.13;99686.97;5007226;28;20132;-85
2021/12/18 10:54:23;;;;;;;8.10;3.80;;;;;;;-0.04;67.77;99691.03;5014805;28;20050;-86
2021/12/18 10:56:55;;;;;;;6.82;3.42;;;;;;;-0.09;67.69;99696.78;5018229;28;20148;-88
2021/12/18 10:59:31;;;;;;;8.50;3.53;;;;;;;-0.14;67.67;99688.00;4997851;28;20050;-83
2021/12/18 11:02:05;;;;;;;8.65;3.45;;;;;;;-0.12;67.64;99692.38;4999902;28;20112;-86
2021/12/18 11:04:34;;;;;;;7.32;2.92;;;;;;;-0.16;67.53;99677.66;5007822;28;20061;-82
2021/12/18 11:07:27;;;;;;;3.67;2.43;;;;;;;-0.19;67.88;99689.47;5021611;28;20061;-87
2021/12/18 11:11:05;;;;;;;6.07;3.00;;;;;;;-0.29;68.06;99667.69;5025484;28;20275;-86
2021/12/18 11:13:41;;;;;;;5.95;2.80;;;;;;;-0.23;67.97;99678.22;5014542;28;20053;-85
2021/12/18 11:16:08;;;;;;;4.07;2.42;;;;;;;-0.22;68.00;99687.66;5035343;28;20057;-83
2021/12/18 11:18:43;;;;;;;3.13;2.30;;;;;;;-0.24;67.55;99674.78;5049176;28;20077;-85
2021/12/18 11:21:10;;;;;;;4.93;2.40;;;;;;;-0.25;67.88;99687.53;5027459;28;20057;-86
2021/12/18 11:23:43;;;;;;;4.55;2.63;;;;;;;-0.37;68.22;99682.72;5014330;28;20050;-84
2021/12/18 11:26:13;;;;;;;3.33;2.33;;;;;;;-0.38;68.39;99686.13;4990548;28;20058;-85
2021/12/18 11:28:43;;;;;;;4.78;2.90;;;;;;;-0.46;68.59;99664.38;5013279;28;20058;-83
2021/12/18 11:31:11;;;;;;;3.38;2.05;;;;;;;-0.48;68.40;99669.41;5005089;28;20076;-86
2021/12/18 11:33:39;;;;;;;4.85;2.63;;;;;;;-0.42;68.85;99671.41;5002597;28;20057;-89
2021/12/18 11:36:08;;;;;;;5.43;2.78;;;;;;;-0.44;68.68;99670.44;5032506;28;20081;-84
2021/12/18 11:38:42;;;;;;;4.90;2.50;;;;;;;-0.57;68.86;99645.94;5033731;28;20172;-84
2021/12/18 11:41:15;;;;;;;5.78;2.50;;;;;;;-0.58;68.81;99640.72;5036885;28;20054;-84
2021/12/18 11:43:46;;;;;;;3.03;2.28;;;;;;;-0.59;68.15;99632.16;5005768;28;20140;-83
2021/12/18 11:46:33;;;;;;;7.97;2.28;;;;;;;-0.48;68.73;99665.97;5026537;28;20085;-82
2021/12/18 11:49:04;;;;;;;4.40;2.95;;;;;;;-0.54;68.36;99661.44;5013682;28;20062;-83
2021/12/18 11:51:31;;;;;;;;;;;;;;;-0.66;68.69;99663.50;5020051;28;20105;-83
2021/12/18 11:53:58;;;;;;;5.75;3.22;;;;;;;-0.57;69.01;99652.75;5019130;28;19949;-83
2021/12/18 11:56:26;;;;;;;4.10;2.83;;;;;;;-0.54;68.33;99651.19;5040640;28;20050;-81
2021/12/18 11:58:53;;;;;;;3.72;2.08;;;;;;;-0.52;68.55;99656.41;5023500;28;20057;-84
2021/12/18 12:01:25;;;;;;;2.58;2.00;;;;;;;-0.53;68.69;99650.38;5023912;28;20049;-83
2021/12/18 12:03:52;;;;;;;4.28;2.40;;;;;;;-0.51;68.19;99650.47;5020194;28;20044;-83
2021/12/18 12:06:33;;;;;;;3.70;2.35;;;;;;;-0.52;68.21;99658.97;5018635;28;20050;-83
2021/12/18 12:09:13;;;;;;;2.87;1.93;;;;;;;-0.65;67.73;99650.72;5004546;28;20060;-83
2021/12/18 12:12:00;;;;;;;4.63;2.53;;;;;;;-0.70;67.57;99661.59;4986068;28;20122;-84
2021/12/18 12:14:28;;;;;;;3.42;2.13;;;;;;;-0.80;67.35;99628.63;5006888;28;20061;-86
2021/12/18 12:16:57;;;;;;;3.88;2.42;;;;;;;-0.69;67.22;99646.28;5008023;28;20117;-83
2021/12/18 12:19:39;;;;;;;2.50;1.95;;;;;;;-0.69;67.38;99628.31;4983948;28;20525;-87
2021/12/18 12:22:12;;;;;;;2.15;1.83;;;;;;;-0.71;67.10;99629.94;4979356;28;20124;-84
2021/12/18 12:25:13;;;;;;;3.72;2.50;;;;;;;-0.64;67.04;99637.09;5008339;28;20132;-87
2021/12/18 12:28:07;;;;;;;3.00;2.28;;;;;;;-0.68;66.44;99624.94;4997184;28;20058;-85
2021/12/18 12:30:57;;;;;;;2.72;1.90;;;;;;;-0.98;66.32;99573.16;4997137;28;20042;-85
2021/12/18 12:33:33;;;;;;;4.33;1.90;;;;;;;-0.76;67.05;99618.56;4978897;28;20058;-84
2021/12/18 12:36:17;;;;;;;3.30;1.77;;;;;;;-0.71;66.60;99617.13;4981191;28;20105;-87
2021/12/18 12:38:59;;;;;;;3.75;2.08;;;;;;;-0.73;66.70;99593.06;5002420;28;20125;-84